sensor_id;sensor_type;location;lat;lon;timestamp;temperature;humidity
74511;DHT22;62991;50.040;18.400;2023-12-28T00:02:24;5.00;69.00
74511;DHT22;62991;50.040;18.400;2023-12-28T00:05:25;5.10;68.70
74511;DHT22;62991;50.040;18.400;2023-12-28T00:08:26;5.10;68.80
74511;DHT22;62991;50.040;18.400;2023-12-28T00:11:26;5.00;69.10
74511;DHT22;62991;50.040;18.400;2023-12-28T00:14:27;5.10;69.20
74511;DHT22;62991;50.040;18.400;2023-12-28T00:17:28;5.10;69.30
74511;DHT22;62991;50.040;18.400;2023-12-28T00:20:28;5.10;69.50
74511;DHT22;62991;50.040;18.400;2023-12-28T00:23:29;5.10;69.70
74511;DHT22;62991;50.040;18.400;2023-12-28T00:26:29;5.10;69.50
74511;DHT22;62991;50.040;18.400;2023-12-28T00:29:30;5.20;69.20
74511;DHT22;62991;50.040;18.400;2023-12-28T00:32:31;5.30;68.90
74511;DHT22;62991;50.040;18.400;2023-12-28T00:35:31;5.30;68.60
74511;DHT22;62991;50.040;18.400;2023-12-28T00:38:32;5.20;68.90
74511;DHT22;62991;50.040;18.400;2023-12-28T00:41:33;5.30;69.00
74511;DHT22;62991;50.040;18.400;2023-12-28T00:44:33;5.30;68.80
74511;DHT22;62991;50.040;18.400;2023-12-28T00:47:34;5.20;69.20
74511;DHT22;62991;50.040;18.400;2023-12-28T00:50:35;5.20;69.20
74511;DHT22;62991;50.040;18.400;2023-12-28T00:53:35;5.10;69.50
74511;DHT22;62991;50.040;18.400;2023-12-28T00:56:36;5.20;69.20
74511;DHT22;62991;50.040;18.400;2023-12-28T00:59:36;5.20;69.20
74511;DHT22;62991;50.040;18.400;2023-12-28T01:02:37;5.10;69.50
74511;DHT22;62991;50.040;18.400;2023-12-28T01:05:38;5.00;70.10
74511;DHT22;62991;50.040;18.400;2023-12-28T01:08:38;4.90;70.60
74511;DHT22;62991;50.040;18.400;2023-12-28T01:11:39;5.00;70.30
74511;DHT22;62991;50.040;18.400;2023-12-28T01:14:40;5.00;70.30
74511;DHT22;62991;50.040;18.400;2023-12-28T01:17:40;4.90;71.00
74511;DHT22;62991;50.040;18.400;2023-12-28T01:20:41;5.00;70.90
74511;DHT22;62991;50.040;18.400;2023-12-28T01:23:42;4.90;71.10
74511;DHT22;62991;50.040;18.400;2023-12-28T01:26:42;4.90;71.50
74511;DHT22;62991;50.040;18.400;2023-12-28T01:29:43;5.00;71.50
74511;DHT22;62991;50.040;18.400;2023-12-28T01:32:44;5.10;71.40
74511;DHT22;62991;50.040;18.400;2023-12-28T01:35:45;5.10;71.50
74511;DHT22;62991;50.040;18.400;2023-12-28T01:38:46;5.20;71.40
74511;DHT22;62991;50.040;18.400;2023-12-28T01:41:46;5.30;71.20
74511;DHT22;62991;50.040;18.400;2023-12-28T01:44:47;5.30;71.20
74511;DHT22;62991;50.040;18.400;2023-12-28T01:47:48;5.30;71.10
74511;DHT22;62991;50.040;18.400;2023-12-28T01:50:50;5.30;71.20
74511;DHT22;62991;50.040;18.400;2023-12-28T01:53:51;5.30;71.50
74511;DHT22;62991;50.040;18.400;2023-12-28T01:56:52;5.20;71.60
74511;DHT22;62991;50.040;18.400;2023-12-28T01:59:53;5.20;71.70
74511;DHT22;62991;50.040;18.400;2023-12-28T02:02:55;5.30;71.60
74511;DHT22;62991;50.040;18.400;2023-12-28T02:05:56;5.20;71.70
74511;DHT22;62991;50.040;18.400;2023-12-28T02:08:57;5.30;71.70
74511;DHT22;62991;50.040;18.400;2023-12-28T02:11:58;5.20;71.70
74511;DHT22;62991;50.040;18.400;2023-12-28T02:14:59;5.30;71.80
74511;DHT22;62991;50.040;18.400;2023-12-28T02:18:11;5.30;71.80
74511;DHT22;62991;50.040;18.400;2023-12-28T02:21:13;5.40;71.70
74511;DHT22;62991;50.040;18.400;2023-12-28T02:24:15;5.40;71.40
74511;DHT22;62991;50.040;18.400;2023-12-28T02:27:16;5.50;71.30
74511;DHT22;62991;50.040;18.400;2023-12-28T02:30:18;5.60;71.10
74511;DHT22;62991;50.040;18.400;2023-12-28T02:33:26;5.70;70.80
74511;DHT22;62991;50.040;18.400;2023-12-28T02:36:29;5.70;70.40
74511;DHT22;62991;50.040;18.400;2023-12-28T02:39:30;5.70;70.60
74511;DHT22;62991;50.040;18.400;2023-12-28T02:42:32;5.70;70.30
74511;DHT22;62991;50.040;18.400;2023-12-28T02:45:33;5.50;71.00
74511;DHT22;62991;50.040;18.400;2023-12-28T02:48:34;5.70;70.60
74511;DHT22;62991;50.040;18.400;2023-12-28T02:51:34;5.60;70.90
74511;DHT22;62991;50.040;18.400;2023-12-28T02:54:36;5.40;71.80
74511;DHT22;62991;50.040;18.400;2023-12-28T02:57:37;5.40;72.20
74511;DHT22;62991;50.040;18.400;2023-12-28T03:00:38;5.30;72.60
74511;DHT22;62991;50.040;18.400;2023-12-28T03:03:39;5.30;73.10
74511;DHT22;62991;50.040;18.400;2023-12-28T03:06:39;5.40;72.90
74511;DHT22;62991;50.040;18.400;2023-12-28T03:09:41;5.40;73.00
74511;DHT22;62991;50.040;18.400;2023-12-28T03:12:42;5.50;72.60
74511;DHT22;62991;50.040;18.400;2023-12-28T03:15:42;5.50;72.60
74511;DHT22;62991;50.040;18.400;2023-12-28T03:18:43;5.60;72.70
74511;DHT22;62991;50.040;18.400;2023-12-28T03:21:44;5.60;72.60
74511;DHT22;62991;50.040;18.400;2023-12-28T03:24:44;5.50;73.00
74511;DHT22;62991;50.040;18.400;2023-12-28T03:27:45;5.40;73.30
74511;DHT22;62991;50.040;18.400;2023-12-28T03:30:45;5.40;73.70
74511;DHT22;62991;50.040;18.400;2023-12-28T03:33:46;5.40;73.80
74511;DHT22;62991;50.040;18.400;2023-12-28T03:36:47;5.30;74.30
74511;DHT22;62991;50.040;18.400;2023-12-28T03:39:47;5.20;74.60
74511;DHT22;62991;50.040;18.400;2023-12-28T03:42:48;5.30;74.80
74511;DHT22;62991;50.040;18.400;2023-12-28T03:45:49;5.40;74.60
74511;DHT22;62991;50.040;18.400;2023-12-28T03:48:49;5.40;74.40
74511;DHT22;62991;50.040;18.400;2023-12-28T03:51:51;5.40;74.20
74511;DHT22;62991;50.040;18.400;2023-12-28T03:54:52;5.40;74.30
74511;DHT22;62991;50.040;18.400;2023-12-28T03:57:53;5.40;74.20
74511;DHT22;62991;50.040;18.400;2023-12-28T04:00:53;5.40;74.30
74511;DHT22;62991;50.040;18.400;2023-12-28T04:03:54;5.40;74.40
74511;DHT22;62991;50.040;18.400;2023-12-28T04:06:55;5.30;74.80
74511;DHT22;62991;50.040;18.400;2023-12-28T04:09:55;5.30;75.00
74511;DHT22;62991;50.040;18.400;2023-12-28T04:12:58;5.30;75.10
74511;DHT22;62991;50.040;18.400;2023-12-28T04:15:59;5.30;75.10
74511;DHT22;62991;50.040;18.400;2023-12-28T04:19:00;5.40;74.60
74511;DHT22;62991;50.040;18.400;2023-12-28T04:22:01;5.50;74.40
74511;DHT22;62991;50.040;18.400;2023-12-28T04:25:01;5.50;74.50
74511;DHT22;62991;50.040;18.400;2023-12-28T04:28:03;5.50;74.50
74511;DHT22;62991;50.040;18.400;2023-12-28T04:31:04;5.50;74.70
74511;DHT22;62991;50.040;18.400;2023-12-28T04:34:05;5.50;74.40
74511;DHT22;62991;50.040;18.400;2023-12-28T04:37:06;5.50;74.40
74511;DHT22;62991;50.040;18.400;2023-12-28T04:40:07;5.50;74.30
74511;DHT22;62991;50.040;18.400;2023-12-28T04:43:08;5.50;74.40
74511;DHT22;62991;50.040;18.400;2023-12-28T04:46:08;5.40;74.40
74511;DHT22;62991;50.040;18.400;2023-12-28T04:49:10;5.50;74.40
74511;DHT22;62991;50.040;18.400;2023-12-28T04:52:11;5.60;74.30
74511;DHT22;62991;50.040;18.400;2023-12-28T04:55:12;5.60;74.00
74511;DHT22;62991;50.040;18.400;2023-12-28T04:58:12;5.70;73.60
74511;DHT22;62991;50.040;18.400;2023-12-28T05:01:13;5.80;73.10
74511;DHT22;62991;50.040;18.400;2023-12-28T05:04:14;5.90;73.10
74511;DHT22;62991;50.040;18.400;2023-12-28T05:07:15;5.80;72.80
74511;DHT22;62991;50.040;18.400;2023-12-28T05:10:15;5.80;73.00
74511;DHT22;62991;50.040;18.400;2023-12-28T05:13:16;5.80;73.00
74511;DHT22;62991;50.040;18.400;2023-12-28T05:16:17;5.70;73.10
74511;DHT22;62991;50.040;18.400;2023-12-28T05:19:17;5.60;73.40
74511;DHT22;62991;50.040;18.400;2023-12-28T05:22:18;5.70;73.50
74511;DHT22;62991;50.040;18.400;2023-12-28T05:25:19;5.60;73.90
74511;DHT22;62991;50.040;18.400;2023-12-28T05:28:19;5.50;74.40
74511;DHT22;62991;50.040;18.400;2023-12-28T05:31:20;5.50;74.30
74511;DHT22;62991;50.040;18.400;2023-12-28T05:34:22;5.50;74.40
74511;DHT22;62991;50.040;18.400;2023-12-28T05:37:22;5.60;74.20
74511;DHT22;62991;50.040;18.400;2023-12-28T05:40:23;5.50;74.20
74511;DHT22;62991;50.040;18.400;2023-12-28T05:43:24;5.40;74.80
74511;DHT22;62991;50.040;18.400;2023-12-28T05:46:24;5.40;75.00
74511;DHT22;62991;50.040;18.400;2023-12-28T05:49:25;5.30;75.20
74511;DHT22;62991;50.040;18.400;2023-12-28T05:52:26;5.30;75.10
74511;DHT22;62991;50.040;18.400;2023-12-28T05:55:26;5.40;75.10
74511;DHT22;62991;50.040;18.400;2023-12-28T05:58:27;5.30;75.30
74511;DHT22;62991;50.040;18.400;2023-12-28T06:01:27;5.30;75.60
74511;DHT22;62991;50.040;18.400;2023-12-28T06:04:28;5.30;75.40
74511;DHT22;62991;50.040;18.400;2023-12-28T06:07:29;5.20;75.80
74511;DHT22;62991;50.040;18.400;2023-12-28T06:10:29;5.30;75.90
74511;DHT22;62991;50.040;18.400;2023-12-28T06:13:30;5.20;76.20
74511;DHT22;62991;50.040;18.400;2023-12-28T06:16:31;5.30;76.10
74511;DHT22;62991;50.040;18.400;2023-12-28T06:19:33;5.30;76.00
74511;DHT22;62991;50.040;18.400;2023-12-28T06:22:36;5.40;75.80
74511;DHT22;62991;50.040;18.400;2023-12-28T06:25:37;5.40;75.80
74511;DHT22;62991;50.040;18.400;2023-12-28T06:28:38;5.50;75.80
74511;DHT22;62991;50.040;18.400;2023-12-28T06:31:39;5.50;75.80
74511;DHT22;62991;50.040;18.400;2023-12-28T06:34:39;5.40;76.10
74511;DHT22;62991;50.040;18.400;2023-12-28T06:37:42;5.40;76.30
74511;DHT22;62991;50.040;18.400;2023-12-28T06:40:42;5.40;76.20
74511;DHT22;62991;50.040;18.400;2023-12-28T06:43:43;5.40;76.30
74511;DHT22;62991;50.040;18.400;2023-12-28T06:46:44;5.30;76.60
74511;DHT22;62991;50.040;18.400;2023-12-28T06:49:44;5.30;76.70
74511;DHT22;62991;50.040;18.400;2023-12-28T06:52:45;5.20;77.10
74511;DHT22;62991;50.040;18.400;2023-12-28T06:55:46;5.30;77.70
74511;DHT22;62991;50.040;18.400;2023-12-28T06:58:46;5.20;77.30
74511;DHT22;62991;50.040;18.400;2023-12-28T07:01:47;5.20;77.10
74511;DHT22;62991;50.040;18.400;2023-12-28T07:04:49;5.10;77.50
74511;DHT22;62991;50.040;18.400;2023-12-28T07:07:50;5.10;77.50
74511;DHT22;62991;50.040;18.400;2023-12-28T07:10:51;5.20;77.60
74511;DHT22;62991;50.040;18.400;2023-12-28T07:13:51;5.20;77.30
74511;DHT22;62991;50.040;18.400;2023-12-28T07:16:52;5.10;77.50
74511;DHT22;62991;50.040;18.400;2023-12-28T07:19:53;5.20;77.20
74511;DHT22;62991;50.040;18.400;2023-12-28T07:22:54;5.30;77.00
74511;DHT22;62991;50.040;18.400;2023-12-28T07:25:55;5.40;76.70
74511;DHT22;62991;50.040;18.400;2023-12-28T07:28:55;5.50;76.10
74511;DHT22;62991;50.040;18.400;2023-12-28T07:31:56;5.50;76.10
74511;DHT22;62991;50.040;18.400;2023-12-28T07:34:57;5.60;75.80
74511;DHT22;62991;50.040;18.400;2023-12-28T07:37:59;5.70;75.30
74511;DHT22;62991;50.040;18.400;2023-12-28T07:40:59;5.80;75.10
74511;DHT22;62991;50.040;18.400;2023-12-28T07:44:00;5.80;74.90
74511;DHT22;62991;50.040;18.400;2023-12-28T07:47:01;5.80;74.80
74511;DHT22;62991;50.040;18.400;2023-12-28T07:50:02;5.90;74.50
74511;DHT22;62991;50.040;18.400;2023-12-28T07:53:03;6.00;74.10
74511;DHT22;62991;50.040;18.400;2023-12-28T07:56:04;6.10;73.40
74511;DHT22;62991;50.040;18.400;2023-12-28T07:59:04;6.20;72.90
74511;DHT22;62991;50.040;18.400;2023-12-28T08:02:06;6.40;72.50
74511;DHT22;62991;50.040;18.400;2023-12-28T08:05:08;6.50;72.00
74511;DHT22;62991;50.040;18.400;2023-12-28T08:08:09;6.60;71.70
74511;DHT22;62991;50.040;18.400;2023-12-28T08:11:10;6.60;71.40
74511;DHT22;62991;50.040;18.400;2023-12-28T08:14:10;6.70;71.30
74511;DHT22;62991;50.040;18.400;2023-12-28T08:17:11;6.70;71.30
74511;DHT22;62991;50.040;18.400;2023-12-28T08:20:12;6.80;71.10
74511;DHT22;62991;50.040;18.400;2023-12-28T08:23:12;6.90;70.70
74511;DHT22;62991;50.040;18.400;2023-12-28T08:26:13;7.00;70.50
74511;DHT22;62991;50.040;18.400;2023-12-28T08:29:14;7.00;70.40
74511;DHT22;62991;50.040;18.400;2023-12-28T08:32:14;7.10;70.20
74511;DHT22;62991;50.040;18.400;2023-12-28T08:35:15;7.10;69.90
74511;DHT22;62991;50.040;18.400;2023-12-28T08:38:16;7.10;69.70
74511;DHT22;62991;50.040;18.400;2023-12-28T08:41:24;7.10;69.80
74511;DHT22;62991;50.040;18.400;2023-12-28T08:44:25;7.00;70.00
74511;DHT22;62991;50.040;18.400;2023-12-28T08:47:26;7.10;70.10
74511;DHT22;62991;50.040;18.400;2023-12-28T08:50:26;7.00;70.00
74511;DHT22;62991;50.040;18.400;2023-12-28T08:53:27;7.10;70.10
74511;DHT22;62991;50.040;18.400;2023-12-28T08:56:27;7.10;70.10
74511;DHT22;62991;50.040;18.400;2023-12-28T08:59:28;7.20;70.10
74511;DHT22;62991;50.040;18.400;2023-12-28T09:02:29;7.10;70.10
74511;DHT22;62991;50.040;18.400;2023-12-28T09:05:30;7.20;69.90
74511;DHT22;62991;50.040;18.400;2023-12-28T09:08:30;7.30;70.10
74511;DHT22;62991;50.040;18.400;2023-12-28T09:11:31;7.20;70.20
74511;DHT22;62991;50.040;18.400;2023-12-28T09:14:32;7.40;69.70
74511;DHT22;62991;50.040;18.400;2023-12-28T09:17:33;7.40;69.70
74511;DHT22;62991;50.040;18.400;2023-12-28T09:20:33;7.50;69.60
74511;DHT22;62991;50.040;18.400;2023-12-28T09:23:36;7.50;69.50
74511;DHT22;62991;50.040;18.400;2023-12-28T09:26:36;7.70;68.80
74511;DHT22;62991;50.040;18.400;2023-12-28T09:29:37;7.80;69.20
74511;DHT22;62991;50.040;18.400;2023-12-28T09:32:38;7.70;68.80
74511;DHT22;62991;50.040;18.400;2023-12-28T09:35:38;7.70;68.80
74511;DHT22;62991;50.040;18.400;2023-12-28T09:38:39;7.70;68.60
74511;DHT22;62991;50.040;18.400;2023-12-28T09:41:43;7.80;68.60
74511;DHT22;62991;50.040;18.400;2023-12-28T09:44:49;7.80;68.30
74511;DHT22;62991;50.040;18.400;2023-12-28T09:47:50;7.70;68.40
74511;DHT22;62991;50.040;18.400;2023-12-28T09:50:52;7.80;68.00
74511;DHT22;62991;50.040;18.400;2023-12-28T09:53:55;7.90;68.00
74511;DHT22;62991;50.040;18.400;2023-12-28T09:56:57;8.00;67.50
74511;DHT22;62991;50.040;18.400;2023-12-28T09:59:58;8.10;67.50
74511;DHT22;62991;50.040;18.400;2023-12-28T10:02:58;8.20;67.40
74511;DHT22;62991;50.040;18.400;2023-12-28T10:05:59;8.10;67.60
74511;DHT22;62991;50.040;18.400;2023-12-28T10:09:00;8.10;67.60
74511;DHT22;62991;50.040;18.400;2023-12-28T10:12:01;8.10;67.20
74511;DHT22;62991;50.040;18.400;2023-12-28T10:15:06;8.20;67.40
74511;DHT22;62991;50.040;18.400;2023-12-28T10:18:07;8.40;67.30
74511;DHT22;62991;50.040;18.400;2023-12-28T10:21:08;8.50;66.40
74511;DHT22;62991;50.040;18.400;2023-12-28T10:24:10;8.50;66.70
74511;DHT22;62991;50.040;18.400;2023-12-28T10:27:12;8.40;66.80
74511;DHT22;62991;50.040;18.400;2023-12-28T10:30:13;8.50;66.60
74511;DHT22;62991;50.040;18.400;2023-12-28T10:33:14;8.70;66.10
74511;DHT22;62991;50.040;18.400;2023-12-28T10:36:16;8.80;65.70
74511;DHT22;62991;50.040;18.400;2023-12-28T10:39:19;8.90;64.50
74511;DHT22;62991;50.040;18.400;2023-12-28T10:42:32;9.20;64.00
74511;DHT22;62991;50.040;18.400;2023-12-28T10:45:33;9.30;62.50
74511;DHT22;62991;50.040;18.400;2023-12-28T10:48:38;9.60;62.30
74511;DHT22;62991;50.040;18.400;2023-12-28T10:51:43;9.70;61.60
74511;DHT22;62991;50.040;18.400;2023-12-28T10:55:01;9.90;61.00
74511;DHT22;62991;50.040;18.400;2023-12-28T10:58:12;10.10;60.70
74511;DHT22;62991;50.040;18.400;2023-12-28T11:01:24;10.30;60.30
74511;DHT22;62991;50.040;18.400;2023-12-28T11:07:31;10.60;59.00
74511;DHT22;62991;50.040;18.400;2023-12-28T11:10:33;10.40;58.70
74511;DHT22;62991;50.040;18.400;2023-12-28T11:13:35;10.70;58.90
74511;DHT22;62991;50.040;18.400;2023-12-28T11:16:37;10.70;58.30
74511;DHT22;62991;50.040;18.400;2023-12-28T11:19:39;11.00;57.70
74511;DHT22;62991;50.040;18.400;2023-12-28T11:22:40;13.80;52.10
74511;DHT22;62991;50.040;18.400;2023-12-28T11:25:41;15.30;48.10
74511;DHT22;62991;50.040;18.400;2023-12-28T11:28:42;20.60;39.70
74511;DHT22;62991;50.040;18.400;2023-12-28T11:31:42;23.70;34.20
74511;DHT22;62991;50.040;18.400;2023-12-28T11:34:43;23.20;33.90
74511;DHT22;62991;50.040;18.400;2023-12-28T11:37:46;23.40;33.80
74511;DHT22;62991;50.040;18.400;2023-12-28T11:40:48;25.10;32.90
74511;DHT22;62991;50.040;18.400;2023-12-28T11:43:54;28.70;28.70
74511;DHT22;62991;50.040;18.400;2023-12-28T11:46:55;26.70;30.50
74511;DHT22;62991;50.040;18.400;2023-12-28T11:50:06;22.00;33.90
74511;DHT22;62991;50.040;18.400;2023-12-28T11:53:07;20.10;38.10
74511;DHT22;62991;50.040;18.400;2023-12-28T11:56:08;24.80;32.10
74511;DHT22;62991;50.040;18.400;2023-12-28T11:59:10;26.90;29.20
74511;DHT22;62991;50.040;18.400;2023-12-28T12:02:11;21.70;33.60
74511;DHT22;62991;50.040;18.400;2023-12-28T12:05:12;17.10;40.30
74511;DHT22;62991;50.040;18.400;2023-12-28T12:08:13;14.70;44.80
74511;DHT22;62991;50.040;18.400;2023-12-28T12:11:16;13.70;47.50
74511;DHT22;62991;50.040;18.400;2023-12-28T12:14:18;13.40;48.40
74511;DHT22;62991;50.040;18.400;2023-12-28T12:17:18;12.50;49.80
74511;DHT22;62991;50.040;18.400;2023-12-28T12:20:19;12.40;50.50
74511;DHT22;62991;50.040;18.400;2023-12-28T12:23:20;13.50;48.20
74511;DHT22;62991;50.040;18.400;2023-12-28T12:26:21;13.10;48.90
74511;DHT22;62991;50.040;18.400;2023-12-28T12:29:22;12.30;50.90
74511;DHT22;62991;50.040;18.400;2023-12-28T12:32:23;12.00;52.00
74511;DHT22;62991;50.040;18.400;2023-12-28T12:35:24;11.40;53.20
74511;DHT22;62991;50.040;18.400;2023-12-28T12:38:24;11.20;53.80
74511;DHT22;62991;50.040;18.400;2023-12-28T12:41:26;13.40;50.20
74511;DHT22;62991;50.040;18.400;2023-12-28T12:44:27;19.40;40.80
74511;DHT22;62991;50.040;18.400;2023-12-28T12:47:32;26.30;31.40
74511;DHT22;62991;50.040;18.400;2023-12-28T12:50:34;23.80;32.40
74511;DHT22;62991;50.040;18.400;2023-12-28T12:53:36;22.20;33.60
74511;DHT22;62991;50.040;18.400;2023-12-28T12:56:39;17.30;40.30
74511;DHT22;62991;50.040;18.400;2023-12-28T12:59:45;20.50;36.70
74511;DHT22;62991;50.040;18.400;2023-12-28T13:02:46;24.00;31.80
74511;DHT22;62991;50.040;18.400;2023-12-28T13:05:47;23.20;32.40
74511;DHT22;62991;50.040;18.400;2023-12-28T13:08:47;18.50;38.20
74511;DHT22;62991;50.040;18.400;2023-12-28T13:11:48;16.40;41.40
74511;DHT22;62991;50.040;18.400;2023-12-28T13:14:50;15.20;43.60
74511;DHT22;62991;50.040;18.400;2023-12-28T13:17:51;14.10;45.70
74511;DHT22;62991;50.040;18.400;2023-12-28T13:20:51;13.20;47.80
74511;DHT22;62991;50.040;18.400;2023-12-28T13:23:52;12.60;49.10
74511;DHT22;62991;50.040;18.400;2023-12-28T13:26:53;12.20;50.20
74511;DHT22;62991;50.040;18.400;2023-12-28T13:29:54;12.20;50.60
74511;DHT22;62991;50.040;18.400;2023-12-28T13:32:55;12.40;50.40
74511;DHT22;62991;50.040;18.400;2023-12-28T13:35:58;12.50;50.20
74511;DHT22;62991;50.040;18.400;2023-12-28T13:38:59;12.40;50.40
74511;DHT22;62991;50.040;18.400;2023-12-28T13:42:00;12.40;50.60
74511;DHT22;62991;50.040;18.400;2023-12-28T13:45:00;12.30;50.60
74511;DHT22;62991;50.040;18.400;2023-12-28T13:48:03;12.00;51.20
74511;DHT22;62991;50.040;18.400;2023-12-28T13:51:04;11.60;51.90
74511;DHT22;62991;50.040;18.400;2023-12-28T13:54:05;11.50;52.30
74511;DHT22;62991;50.040;18.400;2023-12-28T13:57:06;11.20;52.40
74511;DHT22;62991;50.040;18.400;2023-12-28T14:00:07;11.00;53.00
74511;DHT22;62991;50.040;18.400;2023-12-28T14:03:09;10.90;52.80
74511;DHT22;62991;50.040;18.400;2023-12-28T14:06:09;10.70;53.50
74511;DHT22;62991;50.040;18.400;2023-12-28T14:09:10;10.40;53.40
74511;DHT22;62991;50.040;18.400;2023-12-28T14:12:12;10.10;53.90
74511;DHT22;62991;50.040;18.400;2023-12-28T14:15:13;10.00;54.30
74511;DHT22;62991;50.040;18.400;2023-12-28T14:18:16;9.90;54.30
74511;DHT22;62991;50.040;18.400;2023-12-28T14:21:17;9.80;54.60
74511;DHT22;62991;50.040;18.400;2023-12-28T14:24:18;9.60;55.60
74511;DHT22;62991;50.040;18.400;2023-12-28T14:27:19;9.60;56.00
74511;DHT22;62991;50.040;18.400;2023-12-28T14:30:20;9.50;56.90
74511;DHT22;62991;50.040;18.400;2023-12-28T14:33:21;9.30;56.70
74511;DHT22;62991;50.040;18.400;2023-12-28T14:36:29;9.40;57.00
74511;DHT22;62991;50.040;18.400;2023-12-28T14:39:31;9.20;57.40
74511;DHT22;62991;50.040;18.400;2023-12-28T14:42:33;9.10;58.40
74511;DHT22;62991;50.040;18.400;2023-12-28T14:45:34;9.00;58.80
74511;DHT22;62991;50.040;18.400;2023-12-28T14:48:34;9.10;59.10
74511;DHT22;62991;50.040;18.400;2023-12-28T14:51:35;9.10;59.40
74511;DHT22;62991;50.040;18.400;2023-12-28T14:54:36;9.00;60.00
74511;DHT22;62991;50.040;18.400;2023-12-28T14:57:36;9.00;60.60
74511;DHT22;62991;50.040;18.400;2023-12-28T15:00:37;8.90;60.80
74511;DHT22;62991;50.040;18.400;2023-12-28T15:03:38;8.80;61.70
74511;DHT22;62991;50.040;18.400;2023-12-28T15:06:40;8.60;62.90
74511;DHT22;62991;50.040;18.400;2023-12-28T15:09:40;8.70;63.30
74511;DHT22;62991;50.040;18.400;2023-12-28T15:12:41;8.50;63.30
74511;DHT22;62991;50.040;18.400;2023-12-28T15:15:43;8.50;63.40
74511;DHT22;62991;50.040;18.400;2023-12-28T15:18:45;8.50;64.00
74511;DHT22;62991;50.040;18.400;2023-12-28T15:21:46;8.40;63.60
74511;DHT22;62991;50.040;18.400;2023-12-28T15:24:46;8.30;64.40
74511;DHT22;62991;50.040;18.400;2023-12-28T15:27:47;8.40;64.10
74511;DHT22;62991;50.040;18.400;2023-12-28T15:30:48;8.50;63.60
74511;DHT22;62991;50.040;18.400;2023-12-28T15:33:49;8.50;63.20
74511;DHT22;62991;50.040;18.400;2023-12-28T15:36:49;8.50;63.10
74511;DHT22;62991;50.040;18.400;2023-12-28T15:39:50;8.60;62.60
74511;DHT22;62991;50.040;18.400;2023-12-28T15:42:51;8.60;62.60
74511;DHT22;62991;50.040;18.400;2023-12-28T15:45:51;8.70;62.20
74511;DHT22;62991;50.040;18.400;2023-12-28T15:48:52;8.50;62.50
74511;DHT22;62991;50.040;18.400;2023-12-28T15:51:53;8.60;62.40
74511;DHT22;62991;50.040;18.400;2023-12-28T15:54:54;8.60;61.60
74511;DHT22;62991;50.040;18.400;2023-12-28T15:57:54;8.50;62.60
74511;DHT22;62991;50.040;18.400;2023-12-28T16:00:55;8.50;62.40
74511;DHT22;62991;50.040;18.400;2023-12-28T16:03:56;8.50;63.10
74511;DHT22;62991;50.040;18.400;2023-12-28T16:06:56;8.40;63.30
74511;DHT22;62991;50.040;18.400;2023-12-28T16:09:57;8.30;63.60
74511;DHT22;62991;50.040;18.400;2023-12-28T16:12:58;8.30;63.30
74511;DHT22;62991;50.040;18.400;2023-12-28T16:15:59;8.20;63.30
74511;DHT22;62991;50.040;18.400;2023-12-28T16:19:00;8.30;63.30
74511;DHT22;62991;50.040;18.400;2023-12-28T16:22:01;8.20;63.60
74511;DHT22;62991;50.040;18.400;2023-12-28T16:25:03;8.20;63.60
74511;DHT22;62991;50.040;18.400;2023-12-28T16:28:04;8.30;63.10
74511;DHT22;62991;50.040;18.400;2023-12-28T16:31:05;8.30;63.20
74511;DHT22;62991;50.040;18.400;2023-12-28T16:34:05;8.30;62.90
74511;DHT22;62991;50.040;18.400;2023-12-28T16:37:06;8.20;63.20
74511;DHT22;62991;50.040;18.400;2023-12-28T16:40:07;8.10;63.50
74511;DHT22;62991;50.040;18.400;2023-12-28T16:43:08;8.20;63.50
74511;DHT22;62991;50.040;18.400;2023-12-28T16:46:09;8.20;63.60
74511;DHT22;62991;50.040;18.400;2023-12-28T16:49:09;8.00;63.80
74511;DHT22;62991;50.040;18.400;2023-12-28T16:52:10;8.10;63.70
74511;DHT22;62991;50.040;18.400;2023-12-28T16:55:13;8.10;63.70
74511;DHT22;62991;50.040;18.400;2023-12-28T16:58:13;8.20;63.70
74511;DHT22;62991;50.040;18.400;2023-12-28T17:01:14;8.00;63.80
74511;DHT22;62991;50.040;18.400;2023-12-28T17:04:15;8.00;63.90
74511;DHT22;62991;50.040;18.400;2023-12-28T17:07:15;8.00;64.00
74511;DHT22;62991;50.040;18.400;2023-12-28T17:10:16;7.90;63.90
74511;DHT22;62991;50.040;18.400;2023-12-28T17:13:17;7.80;64.00
74511;DHT22;62991;50.040;18.400;2023-12-28T17:16:20;7.80;64.20
74511;DHT22;62991;50.040;18.400;2023-12-28T17:19:21;7.90;64.30
74511;DHT22;62991;50.040;18.400;2023-12-28T17:22:24;7.80;64.60
74511;DHT22;62991;50.040;18.400;2023-12-28T17:25:48;7.80;64.80
74511;DHT22;62991;50.040;18.400;2023-12-28T17:29:07;7.80;64.90
74511;DHT22;62991;50.040;18.400;2023-12-28T17:32:07;7.90;65.00
74511;DHT22;62991;50.040;18.400;2023-12-28T17:35:10;7.90;64.40
74511;DHT22;62991;50.040;18.400;2023-12-28T17:38:11;7.90;64.60
74511;DHT22;62991;50.040;18.400;2023-12-28T17:41:13;8.00;64.40
74511;DHT22;62991;50.040;18.400;2023-12-28T17:44:23;8.00;64.50
74511;DHT22;62991;50.040;18.400;2023-12-28T17:47:50;7.90;65.00
74511;DHT22;62991;50.040;18.400;2023-12-28T17:50:53;7.80;65.20
74511;DHT22;62991;50.040;18.400;2023-12-28T17:53:55;7.90;65.40
74511;DHT22;62991;50.040;18.400;2023-12-28T17:56:56;7.90;65.00
74511;DHT22;62991;50.040;18.400;2023-12-28T17:59:56;7.90;65.00
74511;DHT22;62991;50.040;18.400;2023-12-28T18:02:57;7.80;65.50
74511;DHT22;62991;50.040;18.400;2023-12-28T18:05:58;7.90;65.90
74511;DHT22;62991;50.040;18.400;2023-12-28T18:08:58;8.00;65.50
74511;DHT22;62991;50.040;18.400;2023-12-28T18:11:59;8.00;65.70
74511;DHT22;62991;50.040;18.400;2023-12-28T18:14:59;7.80;65.90
74511;DHT22;62991;50.040;18.400;2023-12-28T18:18:00;7.70;66.70
74511;DHT22;62991;50.040;18.400;2023-12-28T18:21:01;7.70;66.60
74511;DHT22;62991;50.040;18.400;2023-12-28T18:24:02;7.80;66.90
74511;DHT22;62991;50.040;18.400;2023-12-28T18:27:02;7.90;66.50
74511;DHT22;62991;50.040;18.400;2023-12-28T18:30:03;7.80;66.80
74511;DHT22;62991;50.040;18.400;2023-12-28T18:33:04;7.80;67.10
74511;DHT22;62991;50.040;18.400;2023-12-28T18:36:06;7.70;67.70
74511;DHT22;62991;50.040;18.400;2023-12-28T18:39:09;7.80;67.70
74511;DHT22;62991;50.040;18.400;2023-12-28T18:42:11;8.00;67.50
74511;DHT22;62991;50.040;18.400;2023-12-28T18:45:12;7.80;67.80
74511;DHT22;62991;50.040;18.400;2023-12-28T18:48:13;7.60;67.90
74511;DHT22;62991;50.040;18.400;2023-12-28T18:51:14;7.70;68.00
74511;DHT22;62991;50.040;18.400;2023-12-28T18:54:15;7.70;68.00
74511;DHT22;62991;50.040;18.400;2023-12-28T18:57:15;7.80;67.50
74511;DHT22;62991;50.040;18.400;2023-12-28T19:00:18;7.80;67.30
74511;DHT22;62991;50.040;18.400;2023-12-28T19:03:18;7.70;67.40
74511;DHT22;62991;50.040;18.400;2023-12-28T19:06:19;7.60;67.80